sensor_id;sensor_type;location;lat;lon;timestamp;temperature;humidity
2957;DHT22;1488;51.548;7.222;2022-08-16T00:02:19;27.70;72.40
2957;DHT22;1488;51.548;7.222;2022-08-16T00:04:46;27.70;72.50
2957;DHT22;1488;51.548;7.222;2022-08-16T00:07:13;27.70;72.50
2957;DHT22;1488;51.548;7.222;2022-08-16T00:09:40;27.70;72.50
2957;DHT22;1488;51.548;7.222;2022-08-16T00:12:07;27.70;72.50
2957;DHT22;1488;51.548;7.222;2022-08-16T00:14:34;27.70;72.50
2957;DHT22;1488;51.548;7.222;2022-08-16T00:17:01;27.70;72.60
2957;DHT22;1488;51.548;7.222;2022-08-16T00:19:31;27.70;72.70
2957;DHT22;1488;51.548;7.222;2022-08-16T00:22:00;27.70;72.70
2957;DHT22;1488;51.548;7.222;2022-08-16T00:24:28;27.70;72.70
2957;DHT22;1488;51.548;7.222;2022-08-16T00:26:55;27.70;73.60
2957;DHT22;1488;51.548;7.222;2022-08-16T00:29:22;27.70;72.80
2957;DHT22;1488;51.548;7.222;2022-08-16T00:31:50;27.70;72.80
2957;DHT22;1488;51.548;7.222;2022-08-16T00:34:18;27.70;72.90
2957;DHT22;1488;51.548;7.222;2022-08-16T00:36:47;27.70;73.00
2957;DHT22;1488;51.548;7.222;2022-08-16T00:39:15;27.70;73.00
2957;DHT22;1488;51.548;7.222;2022-08-16T00:41:44;27.70;73.10
2957;DHT22;1488;51.548;7.222;2022-08-16T00:44:13;27.70;73.20
2957;DHT22;1488;51.548;7.222;2022-08-16T00:46:45;27.70;73.70
2957;DHT22;1488;51.548;7.222;2022-08-16T00:49:14;27.70;73.70
2957;DHT22;1488;51.548;7.222;2022-08-16T00:51:41;27.70;73.60
2957;DHT22;1488;51.548;7.222;2022-08-16T00:54:10;27.70;73.90
2957;DHT22;1488;51.548;7.222;2022-08-16T00:56:42;27.70;74.50
2957;DHT22;1488;51.548;7.222;2022-08-16T00:59:12;27.70;74.70
2957;DHT22;1488;51.548;7.222;2022-08-16T01:01:41;27.70;74.70
2957;DHT22;1488;51.548;7.222;2022-08-16T01:04:10;27.70;75.30
2957;DHT22;1488;51.548;7.222;2022-08-16T01:06:37;27.70;75.70
2957;DHT22;1488;51.548;7.222;2022-08-16T01:09:05;27.70;75.30
2957;DHT22;1488;51.548;7.222;2022-08-16T01:11:36;27.70;75.70
2957;DHT22;1488;51.548;7.222;2022-08-16T01:14:11;27.70;75.80
2957;DHT22;1488;51.548;7.222;2022-08-16T01:16:40;27.70;76.00
2957;DHT22;1488;51.548;7.222;2022-08-16T01:19:15;27.70;76.30
2957;DHT22;1488;51.548;7.222;2022-08-16T01:21:51;27.70;77.00
2957;DHT22;1488;51.548;7.222;2022-08-16T01:24:26;27.70;76.60
2957;DHT22;1488;51.548;7.222;2022-08-16T01:27:00;27.70;77.50
2957;DHT22;1488;51.548;7.222;2022-08-16T01:29:33;27.70;77.10
2957;DHT22;1488;51.548;7.222;2022-08-16T01:32:00;27.70;77.00
2957;DHT22;1488;51.548;7.222;2022-08-16T01:34:27;27.70;77.00
2957;DHT22;1488;51.548;7.222;2022-08-16T01:36:57;27.70;77.20
2957;DHT22;1488;51.548;7.222;2022-08-16T01:39:26;27.70;76.90
2957;DHT22;1488;51.548;7.222;2022-08-16T01:41:53;27.70;76.90
2957;DHT22;1488;51.548;7.222;2022-08-16T01:44:20;27.70;78.00
2957;DHT22;1488;51.548;7.222;2022-08-16T01:46:47;27.70;77.10
2957;DHT22;1488;51.548;7.222;2022-08-16T01:49:17;27.70;77.20
2957;DHT22;1488;51.548;7.222;2022-08-16T01:51:47;27.70;77.40
2957;DHT22;1488;51.548;7.222;2022-08-16T01:54:16;27.70;78.70
2957;DHT22;1488;51.548;7.222;2022-08-16T01:56:44;27.70;79.10
2957;DHT22;1488;51.548;7.222;2022-08-16T01:59:13;27.70;78.10
2957;DHT22;1488;51.548;7.222;2022-08-16T02:01:40;27.70;78.50
2957;DHT22;1488;51.548;7.222;2022-08-16T02:04:07;27.70;78.70
2957;DHT22;1488;51.548;7.222;2022-08-16T02:06:34;27.70;78.60
2957;DHT22;1488;51.548;7.222;2022-08-16T02:09:03;27.70;79.20
2957;DHT22;1488;51.548;7.222;2022-08-16T02:11:30;27.70;79.40
2957;DHT22;1488;51.548;7.222;2022-08-16T02:13:59;27.70;79.50
2957;DHT22;1488;51.548;7.222;2022-08-16T02:16:26;27.70;80.80
2957;DHT22;1488;51.548;7.222;2022-08-16T02:18:53;27.70;79.80
2957;DHT22;1488;51.548;7.222;2022-08-16T02:21:20;27.70;81.00
2957;DHT22;1488;51.548;7.222;2022-08-16T02:23:47;27.70;80.50
2957;DHT22;1488;51.548;7.222;2022-08-16T02:26:14;27.70;81.60
2957;DHT22;1488;51.548;7.222;2022-08-16T02:28:42;27.70;80.90
2957;DHT22;1488;51.548;7.222;2022-08-16T02:31:12;27.70;81.50
2957;DHT22;1488;51.548;7.222;2022-08-16T02:33:41;27.70;81.80
2957;DHT22;1488;51.548;7.222;2022-08-16T02:36:10;27.70;82.70
2957;DHT22;1488;51.548;7.222;2022-08-16T02:38:37;27.70;81.40
2957;DHT22;1488;51.548;7.222;2022-08-16T02:41:06;27.70;80.90
2957;DHT22;1488;51.548;7.222;2022-08-16T02:43:36;27.70;82.10
2957;DHT22;1488;51.548;7.222;2022-08-16T02:46:04;27.70;81.50
2957;DHT22;1488;51.548;7.222;2022-08-16T02:48:33;27.70;80.90
2957;DHT22;1488;51.548;7.222;2022-08-16T02:51:02;27.70;81.50
2957;DHT22;1488;51.548;7.222;2022-08-16T02:53:30;27.70;81.10
2957;DHT22;1488;51.548;7.222;2022-08-16T02:55:57;27.70;79.90
2957;DHT22;1488;51.548;7.222;2022-08-16T02:58:25;27.70;79.90
2957;DHT22;1488;51.548;7.222;2022-08-16T03:00:52;27.70;79.60
2957;DHT22;1488;51.548;7.222;2022-08-16T03:03:19;27.70;80.20
2957;DHT22;1488;51.548;7.222;2022-08-16T03:05:48;27.70;79.70
2957;DHT22;1488;51.548;7.222;2022-08-16T03:08:16;27.70;80.00
2957;DHT22;1488;51.548;7.222;2022-08-16T03:10:44;27.70;80.40
2957;DHT22;1488;51.548;7.222;2022-08-16T03:13:11;27.70;80.10
2957;DHT22;1488;51.548;7.222;2022-08-16T03:15:38;27.70;80.10
2957;DHT22;1488;51.548;7.222;2022-08-16T03:18:05;27.70;79.50
2957;DHT22;1488;51.548;7.222;2022-08-16T03:20:32;27.70;79.00
2957;DHT22;1488;51.548;7.222;2022-08-16T03:23:00;27.70;80.00
2957;DHT22;1488;51.548;7.222;2022-08-16T03:25:27;27.70;79.50
2957;DHT22;1488;51.548;7.222;2022-08-16T03:27:54;27.70;79.40
2957;DHT22;1488;51.548;7.222;2022-08-16T03:30:23;27.70;79.50
2957;DHT22;1488;51.548;7.222;2022-08-16T03:32:51;27.70;79.20
2957;DHT22;1488;51.548;7.222;2022-08-16T03:35:21;27.70;78.80
2957;DHT22;1488;51.548;7.222;2022-08-16T03:37:48;27.70;78.90
2957;DHT22;1488;51.548;7.222;2022-08-16T03:40:19;27.70;78.60
2957;DHT22;1488;51.548;7.222;2022-08-16T03:42:46;27.70;78.80
2957;DHT22;1488;51.548;7.222;2022-08-16T03:45:13;27.70;79.00
2957;DHT22;1488;51.548;7.222;2022-08-16T03:47:40;27.70;79.20
2957;DHT22;1488;51.548;7.222;2022-08-16T03:50:08;27.70;81.40
2957;DHT22;1488;51.548;7.222;2022-08-16T03:52:34;27.70;79.80
2957;DHT22;1488;51.548;7.222;2022-08-16T03:55:03;27.70;79.50
2957;DHT22;1488;51.548;7.222;2022-08-16T03:57:31;27.70;80.00
2957;DHT22;1488;51.548;7.222;2022-08-16T03:59:58;27.70;79.20
2957;DHT22;1488;51.548;7.222;2022-08-16T04:02:25;27.70;78.80
2957;DHT22;1488;51.548;7.222;2022-08-16T04:04:52;27.70;79.00
2957;DHT22;1488;51.548;7.222;2022-08-16T04:07:19;27.70;78.90
2957;DHT22;1488;51.548;7.222;2022-08-16T04:09:47;27.70;78.20
2957;DHT22;1488;51.548;7.222;2022-08-16T04:12:14;27.70;77.60
2957;DHT22;1488;51.548;7.222;2022-08-16T04:14:43;27.70;77.60
2957;DHT22;1488;51.548;7.222;2022-08-16T04:17:11;27.70;78.40
2957;DHT22;1488;51.548;7.222;2022-08-16T04:19:40;27.60;78.10
2957;DHT22;1488;51.548;7.222;2022-08-16T04:22:08;27.50;78.10
2957;DHT22;1488;51.548;7.222;2022-08-16T04:24:38;27.30;78.50
2957;DHT22;1488;51.548;7.222;2022-08-16T04:27:05;27.20;79.40
2957;DHT22;1488;51.548;7.222;2022-08-16T04:29:32;27.10;79.30
2957;DHT22;1488;51.548;7.222;2022-08-16T04:32:01;27.00;80.10
2957;DHT22;1488;51.548;7.222;2022-08-16T04:34:30;27.00;80.40
2957;DHT22;1488;51.548;7.222;2022-08-16T04:36:58;26.90;80.20
2957;DHT22;1488;51.548;7.222;2022-08-16T04:39:27;26.80;80.30
2957;DHT22;1488;51.548;7.222;2022-08-16T04:41:54;26.80;81.40
2957;DHT22;1488;51.548;7.222;2022-08-16T04:44:21;26.80;80.40
2957;DHT22;1488;51.548;7.222;2022-08-16T04:46:48;26.80;80.70
2957;DHT22;1488;51.548;7.222;2022-08-16T04:49:18;26.70;81.20
2957;DHT22;1488;51.548;7.222;2022-08-16T04:51:47;26.70;81.00
2957;DHT22;1488;51.548;7.222;2022-08-16T04:54:14;26.70;80.80
2957;DHT22;1488;51.548;7.222;2022-08-16T04:56:41;26.70;81.20
2957;DHT22;1488;51.548;7.222;2022-08-16T04:59:08;26.60;81.00
2957;DHT22;1488;51.548;7.222;2022-08-16T05:01:36;26.60;80.90
2957;DHT22;1488;51.548;7.222;2022-08-16T05:04:03;26.60;81.30
2957;DHT22;1488;51.548;7.222;2022-08-16T05:06:32;26.60;80.60
2957;DHT22;1488;51.548;7.222;2022-08-16T05:08:59;26.60;80.60
2957;DHT22;1488;51.548;7.222;2022-08-16T05:11:26;26.70;80.60
2957;DHT22;1488;51.548;7.222;2022-08-16T05:13:54;26.60;80.40
2957;DHT22;1488;51.548;7.222;2022-08-16T05:16:24;26.70;80.50
2957;DHT22;1488;51.548;7.222;2022-08-16T05:18:53;26.70;80.60
2957;DHT22;1488;51.548;7.222;2022-08-16T05:21:21;26.70;80.80
2957;DHT22;1488;51.548;7.222;2022-08-16T05:23:51;26.70;81.80
2957;DHT22;1488;51.548;7.222;2022-08-16T05:26:18;26.70;81.10
2957;DHT22;1488;51.548;7.222;2022-08-16T05:28:45;26.70;80.90
2957;DHT22;1488;51.548;7.222;2022-08-16T05:31:12;26.70;81.10
2957;DHT22;1488;51.548;7.222;2022-08-16T05:33:40;26.70;80.80
2957;DHT22;1488;51.548;7.222;2022-08-16T05:36:07;26.70;80.80
2957;DHT22;1488;51.548;7.222;2022-08-16T05:38:38;26.70;81.50
2957;DHT22;1488;51.548;7.222;2022-08-16T05:41:07;26.70;81.10
2957;DHT22;1488;51.548;7.222;2022-08-16T05:43:34;26.80;81.60
2957;DHT22;1488;51.548;7.222;2022-08-16T05:46:01;26.80;81.40
2957;DHT22;1488;51.548;7.222;2022-08-16T05:48:32;26.80;81.70
2957;DHT22;1488;51.548;7.222;2022-08-16T05:51:03;26.80;81.20
2957;DHT22;1488;51.548;7.222;2022-08-16T05:53:30;26.80;81.20
2957;DHT22;1488;51.548;7.222;2022-08-16T05:55:57;26.90;80.80
2957;DHT22;1488;51.548;7.222;2022-08-16T05:58:25;27.00;80.70
2957;DHT22;1488;51.548;7.222;2022-08-16T06:00:52;27.00;80.40
2957;DHT22;1488;51.548;7.222;2022-08-16T06:03:19;27.10;80.30
2957;DHT22;1488;51.548;7.222;2022-08-16T06:05:46;27.10;80.40
2957;DHT22;1488;51.548;7.222;2022-08-16T06:08:13;27.10;80.10
2957;DHT22;1488;51.548;7.222;2022-08-16T06:10:40;27.10;79.70
2957;DHT22;1488;51.548;7.222;2022-08-16T06:13:07;27.10;80.40
2957;DHT22;1488;51.548;7.222;2022-08-16T06:15:35;27.10;80.30
2957;DHT22;1488;51.548;7.222;2022-08-16T06:18:02;27.10;80.60
2957;DHT22;1488;51.548;7.222;2022-08-16T06:20:29;27.10;81.10
2957;DHT22;1488;51.548;7.222;2022-08-16T06:22:57;27.20;80.30
2957;DHT22;1488;51.548;7.222;2022-08-16T06:25:25;27.20;79.80
2957;DHT22;1488;51.548;7.222;2022-08-16T06:27:53;27.20;79.60
2957;DHT22;1488;51.548;7.222;2022-08-16T06:30:20;27.20;79.50
2957;DHT22;1488;51.548;7.222;2022-08-16T06:32:49;27.20;79.50
2957;DHT22;1488;51.548;7.222;2022-08-16T06:35:16;27.20;79.40
2957;DHT22;1488;51.548;7.222;2022-08-16T06:37:43;27.30;80.00
2957;DHT22;1488;51.548;7.222;2022-08-16T06:40:11;27.30;79.90
2957;DHT22;1488;51.548;7.222;2022-08-16T06:42:38;27.30;80.20
2957;DHT22;1488;51.548;7.222;2022-08-16T06:45:06;27.30;80.10
2957;DHT22;1488;51.548;7.222;2022-08-16T06:47:34;27.30;80.00
2957;DHT22;1488;51.548;7.222;2022-08-16T06:50:02;27.30;79.90
2957;DHT22;1488;51.548;7.222;2022-08-16T06:52:30;27.40;79.50
2957;DHT22;1488;51.548;7.222;2022-08-16T06:55:02;27.20;79.20
2957;DHT22;1488;51.548;7.222;2022-08-16T06:57:29;27.30;79.60
2957;DHT22;1488;51.548;7.222;2022-08-16T06:59:56;27.40;79.50
2957;DHT22;1488;51.548;7.222;2022-08-16T07:02:23;27.40;79.00
2957;DHT22;1488;51.548;7.222;2022-08-16T07:04:54;27.40;79.00
2957;DHT22;1488;51.548;7.222;2022-08-16T07:07:22;27.50;79.20
2957;DHT22;1488;51.548;7.222;2022-08-16T07:09:49;27.50;79.30
2957;DHT22;1488;51.548;7.222;2022-08-16T07:12:17;27.50;79.10
2957;DHT22;1488;51.548;7.222;2022-08-16T07:14:46;27.50;78.80
2957;DHT22;1488;51.548;7.222;2022-08-16T07:17:14;27.50;78.80
2957;DHT22;1488;51.548;7.222;2022-08-16T07:19:43;27.50;78.60
2957;DHT22;1488;51.548;7.222;2022-08-16T07:22:09;27.50;78.70
2957;DHT22;1488;51.548;7.222;2022-08-16T07:24:38;27.50;78.20
2957;DHT22;1488;51.548;7.222;2022-08-16T07:27:05;27.50;78.00
2957;DHT22;1488;51.548;7.222;2022-08-16T07:29:31;27.50;78.50
2957;DHT22;1488;51.548;7.222;2022-08-16T07:31:58;27.50;78.00
2957;DHT22;1488;51.548;7.222;2022-08-16T07:34:25;27.50;77.80
2957;DHT22;1488;51.548;7.222;2022-08-16T07:36:52;27.50;78.00
2957;DHT22;1488;51.548;7.222;2022-08-16T07:39:19;27.50;78.00
2957;DHT22;1488;51.548;7.222;2022-08-16T07:41:48;27.50;78.00
2957;DHT22;1488;51.548;7.222;2022-08-16T07:44:15;27.50;77.60
2957;DHT22;1488;51.548;7.222;2022-08-16T07:46:42;27.50;77.80
2957;DHT22;1488;51.548;7.222;2022-08-16T07:49:09;27.50;78.40
2957;DHT22;1488;51.548;7.222;2022-08-16T07:51:36;27.50;78.60
2957;DHT22;1488;51.548;7.222;2022-08-16T07:54:05;27.50;78.10
2957;DHT22;1488;51.548;7.222;2022-08-16T07:56:32;27.60;78.50
2957;DHT22;1488;51.548;7.222;2022-08-16T07:59:00;27.50;78.30
2957;DHT22;1488;51.548;7.222;2022-08-16T08:01:29;27.60;78.40
2957;DHT22;1488;51.548;7.222;2022-08-16T08:03:56;27.60;77.80
2957;DHT22;1488;51.548;7.222;2022-08-16T08:06:25;27.60;77.90
2957;DHT22;1488;51.548;7.222;2022-08-16T08:08:53;27.60;78.10
2957;DHT22;1488;51.548;7.222;2022-08-16T08:11:22;27.60;77.60
2957;DHT22;1488;51.548;7.222;2022-08-16T08:13:50;27.60;77.80
2957;DHT22;1488;51.548;7.222;2022-08-16T08:16:18;27.60;77.80
2957;DHT22;1488;51.548;7.222;2022-08-16T08:18:46;27.60;78.30
2957;DHT22;1488;51.548;7.222;2022-08-16T08:21:13;27.60;78.20
2957;DHT22;1488;51.548;7.222;2022-08-16T08:23:40;27.60;78.20
2957;DHT22;1488;51.548;7.222;2022-08-16T08:26:07;27.60;78.10
2957;DHT22;1488;51.548;7.222;2022-08-16T08:28:34;27.60;77.80
2957;DHT22;1488;51.548;7.222;2022-08-16T08:31:01;27.60;77.80
2957;DHT22;1488;51.548;7.222;2022-08-16T08:33:31;27.60;78.10
2957;DHT22;1488;51.548;7.222;2022-08-16T08:35:59;27.60;77.70
2957;DHT22;1488;51.548;7.222;2022-08-16T08:38:27;27.60;77.20
2957;DHT22;1488;51.548;7.222;2022-08-16T08:40:55;27.60;77.30
2957;DHT22;1488;51.548;7.222;2022-08-16T08:43:22;27.70;77.10
2957;DHT22;1488;51.548;7.222;2022-08-16T08:45:50;27.60;76.80
2957;DHT22;1488;51.548;7.222;2022-08-16T08:48:19;27.70;77.10
2957;DHT22;1488;51.548;7.222;2022-08-16T08:50:47;27.70;77.20
2957;DHT22;1488;51.548;7.222;2022-08-16T08:53:14;27.70;77.50
2957;DHT22;1488;51.548;7.222;2022-08-16T08:55:44;27.60;77.50
2957;DHT22;1488;51.548;7.222;2022-08-16T08:58:14;27.70;77.50
2957;DHT22;1488;51.548;7.222;2022-08-16T09:00:41;27.70;77.50
2957;DHT22;1488;51.548;7.222;2022-08-16T09:03:08;27.60;77.20
2957;DHT22;1488;51.548;7.222;2022-08-16T09:05:35;27.70;77.20
2957;DHT22;1488;51.548;7.222;2022-08-16T09:08:03;27.70;77.00
2957;DHT22;1488;51.548;7.222;2022-08-16T09:10:31;27.70;77.00
2957;DHT22;1488;51.548;7.222;2022-08-16T09:12:58;27.70;77.20
2957;DHT22;1488;51.548;7.222;2022-08-16T09:15:26;27.70;76.90
2957;DHT22;1488;51.548;7.222;2022-08-16T09:17:53;27.70;76.40
2957;DHT22;1488;51.548;7.222;2022-08-16T09:20:21;27.70;76.80
2957;DHT22;1488;51.548;7.222;2022-08-16T09:22:50;27.70;76.90
2957;DHT22;1488;51.548;7.222;2022-08-16T09:25:18;27.70;76.80
2957;DHT22;1488;51.548;7.222;2022-08-16T09:27:45;27.70;76.80
2957;DHT22;1488;51.548;7.222;2022-08-16T09:30:12;27.70;76.40
2957;DHT22;1488;51.548;7.222;2022-08-16T09:32:39;27.70;76.20
2957;DHT22;1488;51.548;7.222;2022-08-16T09:35:07;27.70;76.60
2957;DHT22;1488;51.548;7.222;2022-08-16T09:37:35;27.80;76.60
2957;DHT22;1488;51.548;7.222;2022-08-16T09:40:03;27.70;76.20
2957;DHT22;1488;51.548;7.222;2022-08-16T09:42:32;27.80;76.20
2957;DHT22;1488;51.548;7.222;2022-08-16T09:44:59;27.80;76.10
2957;DHT22;1488;51.548;7.222;2022-08-16T09:47:26;27.70;76.20
2957;DHT22;1488;51.548;7.222;2022-08-16T09:49:53;27.80;76.40
2957;DHT22;1488;51.548;7.222;2022-08-16T09:52:20;27.70;76.20
2957;DHT22;1488;51.548;7.222;2022-08-16T09:54:47;27.70;76.40
2957;DHT22;1488;51.548;7.222;2022-08-16T09:57:14;27.80;76.10
2957;DHT22;1488;51.548;7.222;2022-08-16T09:59:42;27.80;76.20
2957;DHT22;1488;51.548;7.222;2022-08-16T10:02:09;27.80;75.90
2957;DHT22;1488;51.548;7.222;2022-08-16T10:04:36;27.80;76.00
2957;DHT22;1488;51.548;7.222;2022-08-16T10:07:06;27.80;76.00
2957;DHT22;1488;51.548;7.222;2022-08-16T10:09:33;27.80;75.40
2957;DHT22;1488;51.548;7.222;2022-08-16T10:12:00;27.80;75.80
2957;DHT22;1488;51.548;7.222;2022-08-16T10:14:45;27.80;76.10
2957;DHT22;1488;51.548;7.222;2022-08-16T10:17:12;27.80;75.70
2957;DHT22;1488;51.548;7.222;2022-08-16T10:19:39;27.80;75.50
2957;DHT22;1488;51.548;7.222;2022-08-16T10:22:06;27.80;75.70
2957;DHT22;1488;51.548;7.222;2022-08-16T10:24:35;27.80;75.50
2957;DHT22;1488;51.548;7.222;2022-08-16T10:27:02;27.80;75.20
2957;DHT22;1488;51.548;7.222;2022-08-16T10:29:29;27.80;75.80
2957;DHT22;1488;51.548;7.222;2022-08-16T10:31:59;27.90;75.60
2957;DHT22;1488;51.548;7.222;2022-08-16T10:34:26;27.90;74.90
2957;DHT22;1488;51.548;7.222;2022-08-16T10:36:52;27.90;75.40
2957;DHT22;1488;51.548;7.222;2022-08-16T10:39:19;27.90;75.10
2957;DHT22;1488;51.548;7.222;2022-08-16T10:41:46;27.90;75.50
2957;DHT22;1488;51.548;7.222;2022-08-16T10:44:13;27.90;74.90
2957;DHT22;1488;51.548;7.222;2022-08-16T10:46:41;27.90;74.80
2957;DHT22;1488;51.548;7.222;2022-08-16T10:49:10;27.90;75.30
2957;DHT22;1488;51.548;7.222;2022-08-16T10:51:37;27.90;75.00
2957;DHT22;1488;51.548;7.222;2022-08-16T10:54:05;27.90;74.90
2957;DHT22;1488;51.548;7.222;2022-08-16T10:56:33;27.90;74.70
2957;DHT22;1488;51.548;7.222;2022-08-16T10:59:00;27.90;75.00
2957;DHT22;1488;51.548;7.222;2022-08-16T11:01:27;27.90;74.60
2957;DHT22;1488;51.548;7.222;2022-08-16T11:03:54;27.90;74.70
2957;DHT22;1488;51.548;7.222;2022-08-16T11:06:23;27.90;74.40
2957;DHT22;1488;51.548;7.222;2022-08-16T11:08:50;27.90;74.40
2957;DHT22;1488;51.548;7.222;2022-08-16T11:11:17;27.90;74.60
2957;DHT22;1488;51.548;7.222;2022-08-16T11:13:44;27.90;74.60
2957;DHT22;1488;51.548;7.222;2022-08-16T11:16:13;28.00;74.70
2957;DHT22;1488;51.548;7.222;2022-08-16T11:18:40;28.00;74.40
2957;DHT22;1488;51.548;7.222;2022-08-16T11:21:07;28.00;74.50
2957;DHT22;1488;51.548;7.222;2022-08-16T11:23:35;28.00;74.00
2957;DHT22;1488;51.548;7.222;2022-08-16T11:26:02;28.00;74.10
2957;DHT22;1488;51.548;7.222;2022-08-16T11:28:30;28.00;74.00
2957;DHT22;1488;51.548;7.222;2022-08-16T11:30:57;28.00;74.00
2957;DHT22;1488;51.548;7.222;2022-08-16T11:33:24;28.00;74.00
2957;DHT22;1488;51.548;7.222;2022-08-16T11:35:51;28.00;73.70
2957;DHT22;1488;51.548;7.222;2022-08-16T11:38:20;28.00;73.50
2957;DHT22;1488;51.548;7.222;2022-08-16T11:40:50;28.00;73.60
2957;DHT22;1488;51.548;7.222;2022-08-16T11:43:19;28.00;74.10
2957;DHT22;1488;51.548;7.222;2022-08-16T11:45:48;28.10;73.70
2957;DHT22;1488;51.548;7.222;2022-08-16T11:48:15;28.10;73.70
2957;DHT22;1488;51.548;7.222;2022-08-16T11:50:44;28.00;73.50
2957;DHT22;1488;51.548;7.222;2022-08-16T11:53:11;28.10;73.70
2957;DHT22;1488;51.548;7.222;2022-08-16T11:55:41;28.10;73.80
2957;DHT22;1488;51.548;7.222;2022-08-16T11:58:10;28.10;73.70
2957;DHT22;1488;51.548;7.222;2022-08-16T12:00:39;28.10;73.80
2957;DHT22;1488;51.548;7.222;2022-08-16T12:03:06;28.00;73.90
2957;DHT22;1488;51.548;7.222;2022-08-16T12:05:34;28.10;73.90
2957;DHT22;1488;51.548;7.222;2022-08-16T12:08:02;28.10;73.80
2957;DHT22;1488;51.548;7.222;2022-08-16T12:10:30;28.10;73.70
2957;DHT22;1488;51.548;7.222;2022-08-16T12:12:57;28.10;73.70
2957;DHT22;1488;51.548;7.222;2022-08-16T12:15:26;28.10;73.60
2957;DHT22;1488;51.548;7.222;2022-08-16T12:17:55;28.10;73.60
2957;DHT22;1488;51.548;7.222;2022-08-16T12:20:25;28.10;73.60
2957;DHT22;1488;51.548;7.222;2022-08-16T12:22:52;28.10;73.40
2957;DHT22;1488;51.548;7.222;2022-08-16T12:25:21;28.10;73.40
2957;DHT22;1488;51.548;7.222;2022-08-16T12:27:50;28.10;73.30
2957;DHT22;1488;51.548;7.222;2022-08-16T12:30:21;28.00;73.30
2957;DHT22;1488;51.548;7.222;2022-08-16T12:32:50;28.10;73.40
2957;DHT22;1488;51.548;7.222;2022-08-16T12:35:26;28.10;73.40
2957;DHT22;1488;51.548;7.222;2022-08-16T12:37:56;28.10;73.00
2957;DHT22;1488;51.548;7.222;2022-08-16T12:40:26;28.10;72.50
2957;DHT22;1488;51.548;7.222;2022-08-16T12:46:33;28.10;72.00
2957;DHT22;1488;51.548;7.222;2022-08-16T12:49:03;28.00;72.10
2957;DHT22;1488;51.548;7.222;2022-08-16T12:51:35;28.00;72.10
2957;DHT22;1488;51.548;7.222;2022-08-16T12:54:04;28.10;72.60
2957;DHT22;1488;51.548;7.222;2022-08-16T12:56:34;28.10;72.90
2957;DHT22;1488;51.548;7.222;2022-08-16T12:59:05;28.10;73.10
2957;DHT22;1488;51.548;7.222;2022-08-16T13:01:35;28.10;73.20
2957;DHT22;1488;51.548;7.222;2022-08-16T13:04:04;28.10;73.20
2957;DHT22;1488;51.548;7.222;2022-08-16T13:06:33;28.10;73.20
2957;DHT22;1488;51.548;7.222;2022-08-16T13:09:01;28.10;73.30
2957;DHT22;1488;51.548;7.222;2022-08-16T13:11:42;28.10;73.30
2957;DHT22;1488;51.548;7.222;2022-08-16T13:14:13;28.10;73.30
2957;DHT22;1488;51.548;7.222;2022-08-16T13:16:40;28.10;73.30
2957;DHT22;1488;51.548;7.222;2022-08-16T13:19:09;28.10;73.30
2957;DHT22;1488;51.548;7.222;2022-08-16T13:21:36;28.10;73.30
2957;DHT22;1488;51.548;7.222;2022-08-16T13:24:03;28.10;73.30
2957;DHT22;1488;51.548;7.222;2022-08-16T13:26:29;28.10;73.20
2957;DHT22;1488;51.548;7.222;2022-08-16T13:28:56;28.10;73.20
2957;DHT22;1488;51.548;7.222;2022-08-16T13:31:23;28.10;73.20
2957;DHT22;1488;51.548;7.222;2022-08-16T13:33:50;28.10;73.20
2957;DHT22;1488;51.548;7.222;2022-08-16T13:36:18;28.10;73.20
2957;DHT22;1488;51.548;7.222;2022-08-16T13:38:45;28.10;73.20
2957;DHT22;1488;51.548;7.222;2022-08-16T13:41:12;28.10;73.20
2957;DHT22;1488;51.548;7.222;2022-08-16T13:43:39;28.10;73.20
2957;DHT22;1488;51.548;7.222;2022-08-16T13:46:06;28.10;73.20
2957;DHT22;1488;51.548;7.222;2022-08-16T13:48:34;28.10;73.20
2957;DHT22;1488;51.548;7.222;2022-08-16T13:51:01;28.10;73.20
2957;DHT22;1488;51.548;7.222;2022-08-16T13:53:30;28.10;73.20
2957;DHT22;1488;51.548;7.222;2022-08-16T13:55:57;28.10;73.10
2957;DHT22;1488;51.548;7.222;2022-08-16T13:58:24;28.10;73.20
2957;DHT22;1488;51.548;7.222;2022-08-16T14:00:50;28.10;73.10
2957;DHT22;1488;51.548;7.222;2022-08-16T14:03:17;28.10;73.10
2957;DHT22;1488;51.548;7.222;2022-08-16T14:05:45;28.10;73.10
2957;DHT22;1488;51.548;7.222;2022-08-16T14:08:12;28.10;74.00
2957;DHT22;1488;51.548;7.222;2022-08-16T14:10:40;28.10;73.10
2957;DHT22;1488;51.548;7.222;2022-08-16T14:13:08;28.10;73.10
2957;DHT22;1488;51.548;7.222;2022-08-16T14:15:35;28.10;73.10
2957;DHT22;1488;51.548;7.222;2022-08-16T14:18:02;28.10;73.10
2957;DHT22;1488;51.548;7.222;2022-08-16T14:20:29;28.10;73.10
2957;DHT22;1488;51.548;7.222;2022-08-16T14:22:55;28.10;73.10
2957;DHT22;1488;51.548;7.222;2022-08-16T14:25:23;28.10;73.00
2957;DHT22;1488;51.548;7.222;2022-08-16T14:27:51;28.10;73.00
2957;DHT22;1488;51.548;7.222;2022-08-16T14:30:19;28.10;73.00
2957;DHT22;1488;51.548;7.222;2022-08-16T14:32:46;28.10;73.00
2957;DHT22;1488;51.548;7.222;2022-08-16T14:35:15;28.10;73.00
2957;DHT22;1488;51.548;7.222;2022-08-16T14:37:42;28.10;73.00
2957;DHT22;1488;51.548;7.222;2022-08-16T14:40:13;28.10;73.10
2957;DHT22;1488;51.548;7.222;2022-08-16T14:42:40;28.10;73.00
2957;DHT22;1488;51.548;7.222;2022-08-16T14:45:11;28.10;73.00
2957;DHT22;1488;51.548;7.222;2022-08-16T14:47:38;28.10;73.00
2957;DHT22;1488;51.548;7.222;2022-08-16T14:50:07;28.10;73.00
2957;DHT22;1488;51.548;7.222;2022-08-16T14:52:34;28.10;73.00
2957;DHT22;1488;51.548;7.222;2022-08-16T14:55:02;28.10;73.00
2957;DHT22;1488;51.548;7.222;2022-08-16T14:57:29;28.10;73.00
2957;DHT22;1488;51.548;7.222;2022-08-16T14:59:56;28.10;73.00
2957;DHT22;1488;51.548;7.222;2022-08-16T15:02:25;28.10;73.00
2957;DHT22;1488;51.548;7.222;2022-08-16T15:04:53;28.10;73.00
2957;DHT22;1488;51.548;7.222;2022-08-16T15:07:22;28.10;73.00
2957;DHT22;1488;51.548;7.222;2022-08-16T15:09:49;28.10;72.90
2957;DHT22;1488;51.548;7.222;2022-08-16T15:12:18;28.10;72.90
2957;DHT22;1488;51.548;7.222;2022-08-16T15:14:47;28.10;72.90
2957;DHT22;1488;51.548;7.222;2022-08-16T15:17:16;28.10;72.90
2957;DHT22;1488;51.548;7.222;2022-08-16T15:19:46;28.10;72.90
2957;DHT22;1488;51.548;7.222;2022-08-16T15:22:19;28.10;72.90
2957;DHT22;1488;51.548;7.222;2022-08-16T15:24:47;28.10;72.90
2957;DHT22;1488;51.548;7.222;2022-08-16T15:27:15;28.10;72.90
2957;DHT22;1488;51.548;7.222;2022-08-16T15:29:42;28.10;72.90
2957;DHT22;1488;51.548;7.222;2022-08-16T15:32:09;28.10;72.90
2957;DHT22;1488;51.548;7.222;2022-08-16T15:34:36;28.10;72.90
2957;DHT22;1488;51.548;7.222;2022-08-16T15:37:10;28.10;72.90
2957;DHT22;1488;51.548;7.222;2022-08-16T15:39:37;28.10;72.80
2957;DHT22;1488;51.548;7.222;2022-08-16T15:42:05;28.10;72.90
2957;DHT22;1488;51.548;7.222;2022-08-16T15:44:34;28.10;72.80
2957;DHT22;1488;51.548;7.222;2022-08-16T15:47:06;28.10;72.90
2957;DHT22;1488;51.548;7.222;2022-08-16T15:49:35;28.10;72.90
2957;DHT22;1488;51.548;7.222;2022-08-16T15:52:06;28.10;72.90
2957;DHT22;1488;51.548;7.222;2022-08-16T15:54:35;28.10;72.90
2957;DHT22;1488;51.548;7.222;2022-08-16T15:57:02;28.10;72.80
2957;DHT22;1488;51.548;7.222;2022-08-16T15:59:29;28.10;72.90
2957;DHT22;1488;51.548;7.222;2022-08-16T16:01:57;28.10;72.80
2957;DHT22;1488;51.548;7.222;2022-08-16T16:04:24;28.10;72.80
2957;DHT22;1488;51.548;7.222;2022-08-16T16:06:53;28.10;72.80
2957;DHT22;1488;51.548;7.222;2022-08-16T16:09:20;28.10;72.80
2957;DHT22;1488;51.548;7.222;2022-08-16T16:11:48;28.10;72.80